Time;durP1;ratioP1;P1;durP2;ratioP2;P2;SDS_P1;SDS_P2;PMS_P1;PMS_P2;Temp;Humidity;BMP_temperature;BMP_pressure;BME280_temperature;BME280_humidity;BME280_pressure;Samples;Min_cycle;Max_cycle;Signal;HPM_P1;HPM_P2
2022/02/24 00:00:19;;;;;;;14.43;4.95;;;;;;;8.03;67.60;100294.00;5122261;28;20321;-76
2022/02/24 00:02:45;;;;;;;10.23;4.25;;;;;;;8.06;67.48;100291.09;5125620;27;20038;-76
2022/02/24 00:05:12;;;;;;;11.57;4.22;;;;;;;8.04;67.61;100306.22;5122937;27;20023;-75
2022/02/24 00:07:37;;;;;;;18.48;5.15;;;;;;;7.94;67.83;100293.00;5122367;28;20071;-75
2022/02/24 00:10:05;;;;;;;11.82;4.30;;;;;;;8.02;67.06;100305.53;5128212;27;20221;-75
2022/02/24 00:12:30;;;;;;;8.80;4.25;;;;;;;8.08;67.08;100298.88;5125745;27;20387;-75
2022/02/24 00:14:57;;;;;;;14.15;4.55;;;;;;;8.19;66.94;100296.97;5127368;27;20098;-76
2022/02/24 00:17:23;;;;;;;11.70;4.25;;;;;;;8.10;66.87;100303.06;5127206;27;20040;-75
2022/02/24 00:19:48;;;;;;;11.55;4.45;;;;;;;8.07;66.89;100294.56;5123926;27;20023;-75
2022/02/24 00:22:14;;;;;;;11.43;4.28;;;;;;;8.10;67.03;100291.66;5126128;27;20033;-75
2022/02/24 00:24:40;;;;;;;10.02;4.43;;;;;;;7.98;67.03;100301.47;5130219;27;20019;-75
2022/02/24 00:27:06;;;;;;;13.60;4.15;;;;;;;7.99;67.68;100300.50;5121472;27;20051;-75
2022/02/24 00:29:31;;;;;;;9.57;4.30;;;;;;;7.96;67.60;100295.50;5131050;27;20034;-75
2022/02/24 00:31:57;;;;;;;11.45;4.65;;;;;;;7.86;68.38;100291.97;5122515;27;20317;-75
2022/02/24 00:34:22;;;;;;;11.02;5.07;;;;;;;7.75;68.66;100271.81;5125642;27;20035;-75
2022/02/24 00:36:52;;;;;;;9.90;4.50;;;;;;;7.77;68.45;100282.22;5124729;27;20088;-75
2022/02/24 00:39:20;;;;;;;13.65;5.13;;;;;;;7.92;67.99;100287.00;5127779;27;20027;-75
2022/02/24 00:41:46;;;;;;;13.05;5.32;;;;;;;8.05;66.46;100281.53;5125919;27;20031;-75
2022/02/24 00:44:11;;;;;;;8.95;4.57;;;;;;;7.95;66.68;100292.03;5122371;27;20047;-75
2022/02/24 00:46:37;;;;;;;7.50;4.45;;;;;;;7.97;67.07;100286.63;5129385;27;20080;-75
2022/02/24 00:49:03;;;;;;;10.77;4.55;;;;;;;7.97;67.62;100284.81;5127772;27;20040;-76
2022/02/24 00:51:28;;;;;;;13.45;4.32;;;;;;;7.95;66.73;100285.91;5126920;27;20024;-75
2022/02/24 00:53:54;;;;;;;13.38;4.82;;;;;;;7.91;67.57;100266.88;5126545;27;20412;-75
2022/02/24 00:56:19;;;;;;;12.40;4.88;;;;;;;7.92;66.61;100275.63;5121446;28;20329;-75
2022/02/24 00:58:45;;;;;;;12.48;5.07;;;;;;;7.88;67.06;100285.59;5126774;28;20032;-76
2022/02/24 01:01:10;;;;;;;9.55;4.07;;;;;;;7.92;66.26;100280.91;5127455;27;20093;-76
2022/02/24 01:03:36;;;;;;;13.05;5.07;;;;;;;7.80;67.00;100247.69;5125028;27;20038;-75
2022/02/24 01:06:01;;;;;;;7.15;4.45;;;;;;;8.02;66.35;100285.25;5120568;28;20036;-75
2022/02/24 01:08:27;;;;;;;10.73;4.88;;;;;;;8.08;66.89;100278.63;5122311;28;20035;-75
2022/02/24 01:10:52;;;;;;;10.02;4.78;;;;;;;8.02;66.57;100272.06;5122962;28;20040;-75
2022/02/24 01:13:18;;;;;;;12.80;4.97;;;;;;;7.80;67.92;100263.50;5122069;28;20054;-76
2022/02/24 01:15:44;;;;;;;9.68;4.63;;;;;;;7.88;67.64;100258.41;5131185;27;20031;-75
2022/02/24 01:18:09;;;;;;;17.20;7.32;;;;;;;7.86;68.27;100257.69;5122350;27;20031;-75
2022/02/24 01:20:36;;;;;;;10.70;5.47;;;;;;;7.88;67.77;100259.25;5120244;28;20210;-76
2022/02/24 01:23:01;;;;;;;10.90;5.20;;;;;;;7.92;68.30;100259.81;5121199;28;20027;-76
2022/02/24 01:25:27;;;;;;;13.05;5.53;;;;;;;7.88;68.31;100256.59;5126171;27;20031;-75
2022/02/24 01:27:53;;;;;;;9.93;5.45;;;;;;;7.91;67.96;100253.69;5125288;28;20035;-75
2022/02/24 01:30:20;;;;;;;9.95;5.55;;;;;;;7.99;67.27;100251.25;5124160;28;20058;-76
2022/02/24 01:32:45;;;;;;;11.15;5.40;;;;;;;8.10;67.69;100260.84;5129608;27;20027;-76
2022/02/24 01:35:11;;;;;;;13.75;5.25;;;;;;;8.02;67.95;100266.78;5124888;27;20047;-75
2022/02/24 01:37:36;;;;;;;10.20;5.47;;;;;;;8.00;68.38;100252.06;5128170;28;20069;-75
2022/02/24 01:40:04;;;;;;;10.93;5.38;;;;;;;8.18;67.37;100265.47;5129574;28;20052;-75
2022/02/24 01:42:29;;;;;;;13.10;5.75;;;;;;;8.00;67.90;100255.53;5121659;28;20047;-75
2022/02/24 01:44:55;;;;;;;14.20;5.55;;;;;;;7.98;68.45;100268.03;5120826;28;20030;-75
2022/02/24 01:47:20;;;;;;;13.75;5.60;;;;;;;7.96;67.85;100269.13;5120714;28;20024;-75
2022/02/24 01:49:46;;;;;;;13.82;5.78;;;;;;;7.94;67.90;100269.25;5125358;28;20032;-75
2022/02/24 01:52:13;;;;;;;16.65;7.13;;;;;;;8.01;67.38;100259.84;5126007;28;20325;-76
2022/02/24 01:54:40;;;;;;;14.63;5.50;;;;;;;8.06;67.48;100259.44;5126426;28;20329;-76
2022/02/24 01:57:07;;;;;;;11.55;4.75;;;;;;;7.91;67.49;100258.16;5126784;28;20047;-75
2022/02/24 01:59:33;;;;;;;13.95;5.55;;;;;;;7.93;68.26;100258.84;5128099;27;20026;-75
2022/02/24 02:01:59;;;;;;;11.82;5.30;;;;;;;7.72;68.71;100250.16;5121434;28;20333;-75
2022/02/24 02:04:25;;;;;;;11.75;4.97;;;;;;;7.72;68.85;100242.25;5129367;27;20151;-75
2022/02/24 02:06:51;;;;;;;14.98;5.72;;;;;;;7.83;68.63;100268.50;5128382;27;20106;-75
2022/02/24 02:09:20;;;;;;;12.70;5.85;;;;;;;7.88;68.49;100266.31;5127211;27;20044;-75
2022/02/24 02:11:46;;;;;;;13.05;5.50;;;;;;;7.51;68.57;100234.38;5143942;27;20031;-75
2022/02/24 02:14:12;;;;;;;11.25;5.50;;;;;;;7.68;68.97;100268.84;5142649;27;20357;-75
2022/02/24 02:16:51;;;;;;;11.73;5.30;;;;;;;7.69;68.09;100259.97;5134220;27;20057;-75
2022/02/24 02:19:18;;;;;;;11.40;5.07;;;;;;;7.55;68.79;100259.50;5126173;27;20087;-76
2022/02/24 02:21:44;;;;;;;18.02;6.05;;;;;;;7.78;69.04;100290.00;5124250;28;20072;-75
2022/02/24 02:24:10;;;;;;;13.70;6.10;;;;;;;7.72;68.40;100273.88;5126325;27;20105;-75
2022/02/24 02:26:36;;;;;;;9.15;5.05;;;;;;;7.69;69.49;100291.63;5123731;28;20045;-75
2022/02/24 02:29:05;;;;;;;13.50;4.90;;;;;;;7.67;69.26;100288.28;5123779;27;20054;-75
2022/02/24 02:31:32;;;;;;;12.35;5.18;;;;;;;7.71;69.79;100290.66;5127400;27;20035;-75
2022/02/24 02:34:01;;;;;;;11.70;4.60;;;;;;;7.75;69.61;100295.53;5134980;27;20035;-75
2022/02/24 02:36:27;;;;;;;14.70;4.55;;;;;;;7.69;69.69;100293.41;5130286;27;20336;-75
2022/02/24 02:38:53;;;;;;;15.88;5.30;;;;;;;7.71;69.38;100282.75;5131449;27;20089;-75
2022/02/24 02:41:18;;;;;;;13.57;4.97;;;;;;;7.83;69.35;100302.78;5130897;27;20348;-75
2022/02/24 02:43:44;;;;;;;16.63;5.13;;;;;;;7.81;69.77;100287.09;5125126;27;20023;-75
2022/02/24 02:46:10;;;;;;;8.57;4.57;;;;;;;7.82;69.52;100280.03;5129900;27;20031;-75
2022/02/24 02:48:36;;;;;;;10.55;4.60;;;;;;;8.13;67.93;100294.88;5128510;27;20031;-75
2022/02/24 02:51:02;;;;;;;13.50;4.95;;;;;;;7.95;68.69;100299.94;5127856;27;20325;-75
2022/02/24 02:53:27;;;;;;;11.20;4.07;;;;;;;7.97;69.09;100307.72;5142763;27;20030;-76
2022/02/24 02:55:53;;;;;;;9.48;4.30;;;;;;;7.80;69.81;100313.59;5144456;27;20209;-75
2022/02/24 02:58:18;;;;;;;7.25;3.78;;;;;;;7.64;70.15;100303.50;5127070;27;20039;-75
2022/02/24 03:00:44;;;;;;;15.98;4.45;;;;;;;7.67;69.19;100305.91;5130221;27;20313;-75
2022/02/24 03:03:09;;;;;;;12.00;4.22;;;;;;;7.79;69.88;100320.66;5134973;27;20039;-75
2022/02/24 03:05:36;;;;;;;11.10;4.60;;;;;;;7.63;69.84;100309.75;5139346;27;20347;-75
2022/02/24 03:08:01;;;;;;;11.15;4.45;;;;;;;7.77;68.71;100314.69;5144168;27;20089;-75
2022/02/24 03:10:27;;;;;;;10.65;4.13;;;;;;;7.60;69.28;100304.75;5132082;27;20037;-75
2022/02/24 03:12:53;;;;;;;10.70;3.85;;;;;;;7.59;69.36;100318.88;5126950;27;20072;-75
2022/02/24 03:15:19;;;;;;;10.40;3.80;;;;;;;7.47;69.72;100302.31;5123936;27;20145;-75
2022/02/24 03:17:47;;;;;;;8.70;4.05;;;;;;;7.64;70.59;100314.91;5130511;27;20039;-76
2022/02/24 03:20:13;;;;;;;9.35;4.07;;;;;;;7.67;70.75;100313.81;5127509;27;20023;-76
2022/02/24 03:22:39;;;;;;;9.20;4.13;;;;;;;7.67;70.42;100316.44;5131737;27;20042;-75
2022/02/24 03:25:05;;;;;;;10.38;4.18;;;;;;;7.61;70.68;100307.25;5127236;27;20027;-75
2022/02/24 03:27:31;;;;;;;10.55;4.50;;;;;;;7.64;70.57;100316.69;5130927;27;20035;-75
2022/02/24 03:29:57;;;;;;;9.95;3.70;;;;;;;7.64;69.83;100316.69;5128839;27;20073;-75
2022/02/24 03:32:22;;;;;;;11.75;4.28;;;;;;;7.41;71.02;100321.25;5130005;27;20046;-75
2022/02/24 03:34:48;;;;;;;8.63;4.15;;;;;;;7.44;70.72;100318.38;5126881;27;20039;-75
2022/02/24 03:37:14;;;;;;;11.73;4.03;;;;;;;7.43;70.76;100318.50;5122802;28;20035;-75
2022/02/24 03:39:42;;;;;;;8.93;4.25;;;;;;;7.42;71.02;100312.38;5125178;27;20027;-75
2022/02/24 03:42:08;;;;;;;10.68;4.20;;;;;;;7.47;70.56;100301.47;5126550;27;20114;-75
2022/02/24 03:44:34;;;;;;;9.82;4.47;;;;;;;7.45;70.13;100313.94;5129861;27;20107;-75
2022/02/24 03:47:00;;;;;;;8.40;3.75;;;;;;;7.60;69.02;100312.66;5127844;27;20110;-76
2022/02/24 03:49:25;;;;;;;12.80;3.95;;;;;;;7.46;69.56;100323.50;5130980;27;20035;-75
2022/02/24 03:51:51;;;;;;;8.35;3.83;;;;;;;7.49;70.09;100323.25;5128941;27;20064;-75
2022/02/24 03:54:18;;;;;;;10.02;3.72;;;;;;;7.42;70.19;100312.38;5126025;27;20309;-75
2022/02/24 03:56:43;;;;;;;10.35;3.70;;;;;;;7.43;69.82;100321.13;5132939;27;20310;-75
2022/02/24 03:59:09;;;;;;;15.32;3.92;;;;;;;7.44;69.30;100328.06;5126027;27;20023;-75
2022/02/24 04:01:34;;;;;;;9.23;3.78;;;;;;;7.33;69.80;100327.16;5128013;27;20047;-75
2022/02/24 04:04:00;;;;;;;15.20;4.22;;;;;;;7.46;69.71;100328.78;5132518;27;20043;-75
2022/02/24 04:06:25;;;;;;;10.23;4.20;;;;;;;7.51;69.59;100329.22;5124647;27;20226;-76
2022/02/24 04:08:51;;;;;;;14.85;5.65;;;;;;;7.62;69.15;100331.81;5128994;27;20355;-75
2022/02/24 04:11:16;;;;;;;11.25;4.63;;;;;;;7.47;69.05;100326.00;5127025;27;20329;-75
2022/02/24 04:13:42;;;;;;;14.38;4.00;;;;;;;7.53;68.44;100329.94;5125122;27;20069;-75
2022/02/24 04:16:07;;;;;;;13.80;3.97;;;;;;;7.43;68.48;100329.03;5141397;27;20091;-75
2022/02/24 04:18:33;;;;;;;8.80;3.72;;;;;;;7.44;69.18;100334.19;5142530;27;20037;-75
2022/02/24 04:20:58;;;;;;;13.80;4.60;;;;;;;7.45;68.78;100337.66;5126918;27;20047;-75
2022/02/24 04:23:24;;;;;;;27.08;7.25;;;;;;;7.44;69.43;100342.09;5129032;27;20080;-76
2022/02/24 04:25:49;;;;;;;12.20;4.65;;;;;;;7.19;69.85;100324.81;5125376;27;20045;-75
2022/02/24 04:28:15;;;;;;;13.65;4.40;;;;;;;7.39;69.78;100340.78;5129205;27;20333;-75
2022/02/24 04:30:40;;;;;;;14.23;4.50;;;;;;;7.39;69.20;100346.06;5122903;27;20084;-76
2022/02/24 04:33:06;;;;;;;10.00;3.95;;;;;;;7.41;68.21;100341.50;5140218;27;20218;-76
2022/02/24 04:35:31;;;;;;;16.25;4.30;;;;;;;7.41;67.93;100342.34;5126708;27;20039;-75
2022/02/24 04:37:57;;;;;;;14.75;4.70;;;;;;;7.36;68.57;100355.06;5126000;27;20337;-76
2022/02/24 04:40:22;;;;;;;16.15;4.50;;;;;;;7.38;68.19;100353.13;5130773;27;20087;-76
2022/02/24 04:42:48;;;;;;;10.23;4.15;;;;;;;7.44;68.55;100349.97;5125236;27;20353;-76
2022/02/24 04:45:14;;;;;;;18.13;4.93;;;;;;;7.22;68.89;100353.53;5126660;27;20090;-75
2022/02/24 04:47:39;;;;;;;11.38;4.63;;;;;;;7.39;68.47;100351.31;5126996;27;20031;-75
2022/02/24 04:50:08;;;;;;;13.73;4.80;;;;;;;7.36;68.09;100348.00;5123895;27;20023;-76
2022/02/24 04:52:35;;;;;;;11.25;3.53;;;;;;;7.49;67.55;100349.59;5122706;27;20049;-76
2022/02/24 04:55:01;;;;;;;9.18;3.80;;;;;;;7.37;68.73;100359.34;5129769;27;20103;-75
2022/02/24 04:57:27;;;;;;;13.23;3.70;;;;;;;7.30;68.45;100366.09;5125752;27;20054;-75
2022/02/24 04:59:54;;;;;;;9.10;3.33;;;;;;;7.15;68.53;100365.53;5128366;27;20107;-75
2022/02/24 05:02:20;;;;;;;9.20;3.42;;;;;;;7.26;68.46;100372.53;5125152;27;20036;-75
2022/02/24 05:04:45;;;;;;;8.40;2.97;;;;;;;7.26;68.71;100359.38;5128318;27;20022;-75
2022/02/24 05:07:11;;;;;;;6.75;3.33;;;;;;;7.04;68.88;100349.75;5130089;28;20203;-75
2022/02/24 05:09:36;;;;;;;8.52;4.55;;;;;;;7.07;70.12;100383.75;5128165;27;20260;-75
2022/02/24 05:12:02;;;;;;;5.75;3.80;;;;;;;7.15;70.67;100386.59;5123915;28;20389;-75
2022/02/24 05:14:27;;;;;;;7.13;4.05;;;;;;;7.21;70.70;100396.63;5128991;28;20035;-75
2022/02/24 05:16:53;;;;;;;10.50;5.38;;;;;;;7.17;71.42;100389.09;5130408;27;20031;-75
2022/02/24 05:19:18;;;;;;;4.07;2.50;;;;;;;7.13;71.10;100406.94;5141917;27;20026;-75
2022/02/24 05:21:44;;;;;;;4.75;2.75;;;;;;;7.14;71.53;100387.56;5137710;28;20094;-76
2022/02/24 05:24:09;;;;;;;6.05;3.00;;;;;;;7.34;70.91;100407.03;5124456;27;20038;-75
2022/02/24 05:26:37;;;;;;;7.22;2.90;;;;;;;7.33;71.90;100418.53;5131809;28;20100;-76
2022/02/24 05:29:02;;;;;;;7.07;3.70;;;;;;;7.25;71.17;100410.38;5123189;28;20058;-75
2022/02/24 05:31:28;;;;;;;9.05;4.60;;;;;;;7.00;71.31;100382.56;5142594;28;20321;-75
2022/02/24 05:33:54;;;;;;;8.38;4.07;;;;;;;7.11;72.71;100427.31;5142790;27;20259;-76
2022/02/24 05:36:19;;;;;;;16.15;4.65;;;;;;;7.14;71.86;100413.88;5141593;28;20027;-76
2022/02/24 05:38:45;;;;;;;10.05;3.60;;;;;;;7.35;71.91;100425.34;5143287;27;20232;-75
2022/02/24 05:41:10;;;;;;;8.00;2.72;;;;;;;7.29;71.84;100435.53;5146753;27;20076;-75
2022/02/24 05:43:36;;;;;;;8.32;3.63;;;;;;;7.54;70.53;100437.03;5145523;27;20233;-76
2022/02/24 05:46:01;;;;;;;7.43;3.05;;;;;;;7.49;70.14;100437.41;5146558;27;20039;-75
2022/02/24 05:48:27;;;;;;;5.28;2.65;;;;;;;7.45;70.50;100443.88;5146586;27;20055;-75
2022/02/24 05:50:52;;;;;;;5.82;2.83;;;;;;;7.57;69.21;100444.69;5146878;27;20039;-75
2022/02/24 05:53:18;;;;;;;4.82;2.97;;;;;;;7.67;68.53;100461.41;5145207;27;20064;-75
2022/02/24 05:55:43;;;;;;;6.60;3.35;;;;;;;7.63;67.86;100452.06;5145218;27;20023;-76
2022/02/24 05:58:09;;;;;;;7.47;3.60;;;;;;;7.74;67.73;100478.41;5146524;27;20031;-75
2022/02/24 06:00:35;;;;;;;9.90;3.95;;;;;;;7.55;68.42;100465.03;5146134;27;20102;-76
2022/02/24 06:03:01;;;;;;;13.73;5.05;;;;;;;7.62;68.70;100479.41;5144971;27;20317;-76
2022/02/24 06:05:26;;;;;;;13.82;4.65;;;;;;;7.49;68.14;100484.00;5146449;27;20083;-76
2022/02/24 06:07:52;;;;;;;19.95;6.43;;;;;;;7.58;68.35;100477.97;5146251;27;20039;-75
2022/02/24 06:10:17;;;;;;;14.23;5.53;;;;;;;7.72;68.44;100488.22;5146187;27;20199;-75
2022/02/24 06:12:43;;;;;;;17.67;5.55;;;;;;;7.75;67.31;100476.59;5146306;27;20082;-76
2022/02/24 06:15:10;;;;;;;16.02;5.03;;;;;;;7.75;67.58;100493.25;5145096;27;20113;-76
2022/02/24 06:17:37;;;;;;;14.52;4.68;;;;;;;7.62;67.62;100495.22;5143313;27;20220;-76
2022/02/24 06:20:04;;;;;;;13.82;5.28;;;;;;;7.63;67.91;100499.53;5124898;27;20031;-76
2022/02/24 06:22:30;;;;;;;16.20;5.95;;;;;;;7.64;67.99;100507.31;5137909;27;20047;-76
2022/02/24 06:24:56;;;;;;;18.35;4.93;;;;;;;7.56;68.75;100504.44;5132420;27;20062;-75
2022/02/24 06:27:21;;;;;;;15.38;5.03;;;;;;;7.62;67.60;100501.31;5127695;27;20032;-76
2022/02/24 06:29:47;;;;;;;18.48;5.50;;;;;;;7.77;66.86;100511.56;5133616;27;20044;-75
2022/02/24 06:32:13;;;;;;;19.83;5.70;;;;;;;7.80;67.15;100524.50;5130785;27;20089;-75
2022/02/24 06:34:40;;;;;;;17.85;5.32;;;;;;;7.68;66.67;100521.91;5133647;27;20254;-75
2022/02/24 06:37:06;;;;;;;20.92;6.35;;;;;;;7.66;68.17;100528.28;5136448;27;20057;-75
2022/02/24 06:39:31;;;;;;;11.90;5.00;;;;;;;8.04;66.30;100529.56;5144514;27;20026;-75
2022/02/24 06:41:57;;;;;;;21.90;6.03;;;;;;;7.88;66.28;100543.19;5138150;27;20084;-75
2022/02/24 06:44:22;;;;;;;26.63;6.75;;;;;;;8.15;65.60;100540.06;5128390;27;20027;-75
2022/02/24 06:46:48;;;;;;;21.73;7.38;;;;;;;8.10;65.77;100547.53;5130188;27;20023;-76
2022/02/24 06:49:13;;;;;;;22.88;7.25;;;;;;;8.13;65.93;100547.28;5132035;27;20035;-76
2022/02/24 06:51:39;;;;;;;24.40;7.10;;;;;;;8.00;65.80;100550.09;5145513;27;20024;-76
2022/02/24 06:54:05;;;;;;;36.97;8.90;;;;;;;8.11;66.21;100560.59;5129726;27;20031;-75
2022/02/24 06:56:30;;;;;;;21.25;9.02;;;;;;;8.06;65.35;100567.22;5126622;27;20042;-76
2022/02/24 06:58:56;;;;;;;23.48;8.63;;;;;;;8.19;65.63;100573.16;5132012;27;20325;-75
2022/02/24 07:01:21;;;;;;;19.25;7.35;;;;;;;8.06;64.92;100570.69;5126956;27;20269;-76
2022/02/24 07:03:47;;;;;;;18.92;6.32;;;;;;;8.01;65.29;100571.06;5143984;27;20094;-75
2022/02/24 07:06:12;;;;;;;13.10;5.50;;;;;;;8.19;64.29;100573.97;5140966;27;20023;-76
2022/02/24 07:08:39;;;;;;;17.58;5.82;;;;;;;8.20;65.12;100580.94;5127698;27;20037;-75
2022/02/24 07:11:05;;;;;;;18.20;6.82;;;;;;;8.04;64.99;100561.22;5130199;27;20038;-75
2022/02/24 07:13:31;;;;;;;13.27;5.32;;;;;;;8.32;64.07;100572.03;5142872;27;20034;-76
2022/02/24 07:15:57;;;;;;;14.77;6.10;;;;;;;8.33;64.35;100583.47;5143316;27;20027;-75
2022/02/24 07:18:23;;;;;;;11.85;5.88;;;;;;;8.13;64.42;100569.22;5129277;27;20051;-75
2022/02/24 07:20:48;;;;;;;17.25;7.03;;;;;;;8.40;63.61;100565.31;5144630;27;20042;-75
2022/02/24 07:23:14;;;;;;;21.35;7.80;;;;;;;8.46;64.18;100584.13;5140478;27;20136;-76
2022/02/24 07:25:40;;;;;;;14.20;5.55;;;;;;;8.62;63.62;100581.03;5126900;27;20063;-75
2022/02/24 07:28:07;;;;;;;20.40;5.93;;;;;;;9.00;62.39;100598.06;5130284;27;20325;-77
2022/02/24 07:30:35;;;;;;;32.33;11.35;;;;;;;9.18;61.37;100605.25;5135199;27;20052;-75
2022/02/24 07:33:00;;;;;;;27.23;11.68;;;;;;;8.92;61.61;100607.47;5136403;27;20114;-76
2022/02/24 07:35:26;;;;;;;20.20;8.60;;;;;;;9.34;61.63;100611.84;5140274;27;20023;-74
2022/02/24 07:37:51;;;;;;;14.10;4.70;;;;;;;9.22;60.46;100608.47;5141267;27;20051;-75
2022/02/24 07:40:16;;;;;;;12.07;5.13;;;;;;;9.33;59.55;100621.59;5141228;27;20094;-74
2022/02/24 07:42:42;;;;;;;88.53;24.58;;;;;;;9.41;59.91;100608.56;5142261;27;20128;-75
2022/02/24 07:45:08;;;;;;;16.95;6.03;;;;;;;9.55;59.33;100616.13;5141979;27;20027;-76
2022/02/24 07:47:34;;;;;;;21.80;7.63;;;;;;;9.58;60.29;100610.56;5142995;27;20027;-76
2022/02/24 07:49:59;;;;;;;35.90;12.23;;;;;;;9.77;60.52;100617.72;5142255;27;20301;-76
2022/02/24 07:52:25;;;;;;;26.52;9.52;;;;;;;10.09;59.31;100625.44;5142368;27;20386;-76
2022/02/24 07:54:51;;;;;;;19.55;6.50;;;;;;;9.92;58.66;100621.66;5141729;27;20075;-76
2022/02/24 07:57:17;;;;;;;21.67;7.47;;;;;;;10.10;58.78;100615.69;5142715;27;20043;-76
2022/02/24 07:59:42;;;;;;;27.58;7.75;;;;;;;10.04;58.20;100613.59;5141998;27;20031;-76
2022/02/24 08:02:08;;;;;;;24.23;9.80;;;;;;;10.19;58.68;100620.16;5141437;27;20034;-76
2022/02/24 08:04:33;;;;;;;13.68;4.22;;;;;;;9.88;56.36;100624.72;5139658;27;20079;-75
2022/02/24 08:06:59;;;;;;;6.45;2.72;;;;;;;10.04;55.21;100617.06;5141611;27;20041;-76
2022/02/24 08:09:24;;;;;;;8.98;4.70;;;;;;;10.32;54.00;100611.97;5139320;27;20186;-76
2022/02/24 08:14:35;;;;;;;5.10;2.33;;;;;;;9.31;57.00;100626.16;5143922;27;20033;-75
2022/02/24 08:17:01;;;;;;;5.60;2.42;;;;;;;9.20;58.24;100624.44;5141487;27;20031;-74
2022/02/24 08:19:27;;;;;;;6.82;2.70;;;;;;;9.06;59.48;100618.66;5141287;27;20042;-75
2022/02/24 08:21:52;;;;;;;6.68;2.15;;;;;;;9.10;61.46;100628.00;5141563;27;20378;-76
2022/02/24 08:24:17;;;;;;;8.05;2.67;;;;;;;9.12;61.60;100623.44;5139842;27;20018;-76
2022/02/24 08:26:43;;;;;;;4.53;2.42;;;;;;;8.68;60.42;100583.16;5142202;27;20050;-75
2022/02/24 08:29:08;;;;;;;1.52;1.02;;;;;;;8.83;63.11;100629.38;5140112;27;20059;-75
2022/02/24 08:31:34;;;;;;;2.60;1.60;;;;;;;8.49;61.04;100633.16;5140218;27;20068;-75
2022/02/24 08:33:59;;;;;;;6.00;3.10;;;;;;;8.48;65.56;100621.78;5140970;27;20101;-75
2022/02/24 08:36:24;;;;;;;1.85;1.27;;;;;;;8.58;60.92;100637.69;5140198;27;20096;-75
2022/02/24 08:38:50;;;;;;;1.92;1.20;;;;;;;8.54;61.83;100636.25;5140184;27;20038;-76
2022/02/24 08:41:15;;;;;;;4.43;1.23;;;;;;;8.57;64.82;100638.66;5141181;27;20039;-75
2022/02/24 08:43:41;;;;;;;3.70;1.50;;;;;;;8.57;65.17;100628.94;5140445;27;20114;-75
2022/02/24 08:46:06;;;;;;;2.28;1.40;;;;;;;8.71;65.28;100637.50;5138820;27;20091;-75
2022/02/24 08:48:32;;;;;;;2.17;1.60;;;;;;;8.85;67.41;100619.53;5141449;27;20043;-75
2022/02/24 08:50:57;;;;;;;3.85;1.45;;;;;;;8.89;61.99;100641.22;5138782;27;20136;-75
2022/02/24 08:53:24;;;;;;;2.70;1.58;;;;;;;8.72;61.67;100640.00;5140384;27;20321;-75
2022/02/24 08:55:49;;;;;;;2.88;1.50;;;;;;;8.85;63.24;100634.53;5140835;27;20054;-75
2022/02/24 08:58:16;;;;;;;5.22;2.03;;;;;;;8.64;65.89;100645.94;5137642;27;20321;-75
2022/02/24 09:00:47;;;;;;;2.97;1.50;;;;;;;8.72;62.12;100642.66;5142267;27;20035;-75
2022/02/24 09:03:13;;;;;;;5.22;2.97;;;;;;;8.50;61.20;100624.28;5139620;27;20043;-75
2022/02/24 09:05:39;;;;;;;3.35;1.70;;;;;;;8.61;61.85;100638.25;5140131;27;20027;-75
2022/02/24 09:08:04;;;;;;;4.43;2.22;;;;;;;8.73;62.53;100643.50;5141211;28;20046;-75
2022/02/24 09:10:30;;;;;;;4.25;2.70;;;;;;;8.83;61.63;100644.41;5140377;28;20247;-75
2022/02/24 09:12:55;;;;;;;6.07;2.63;;;;;;;8.95;63.27;100635.44;5141237;27;20361;-75
2022/02/24 09:15:21;;;;;;;3.70;1.88;;;;;;;8.90;63.81;100627.06;5144478;27;20027;-76
2022/02/24 09:17:48;;;;;;;4.93;1.98;;;;;;;8.88;61.44;100626.34;5145293;27;20035;-76
2022/02/24 09:20:13;;;;;;;3.17;1.80;;;;;;;8.92;60.86;100630.41;5142983;27;20031;-76
2022/02/24 09:22:39;;;;;;;2.25;1.50;;;;;;;8.98;61.57;100643.09;5145486;27;20046;-75
2022/02/24 09:25:05;;;;;;;5.10;1.90;;;;;;;8.55;60.78;100585.97;5143578;27;20229;-75
2022/02/24 09:27:30;;;;;;;5.50;1.80;;;;;;;8.93;61.58;100634.72;5143605;27;20102;-75
2022/02/24 09:29:56;;;;;;;2.80;1.60;;;;;;;8.94;60.28;100631.13;5145789;27;20046;-75
2022/02/24 09:32:22;;;;;;;5.85;2.17;;;;;;;8.90;59.92;100627.91;5143208;27;20035;-75
2022/02/24 09:34:47;;;;;;;3.10;1.90;;;;;;;9.03;61.03;100622.41;5144953;27;20037;-75
2022/02/24 09:37:13;;;;;;;3.92;1.73;;;;;;;9.04;61.14;100629.38;5140578;27;20107;-75
2022/02/24 09:39:38;;;;;;;2.65;2.08;;;;;;;9.21;61.21;100630.56;5138940;27;20064;-75
2022/02/24 09:42:06;;;;;;;4.10;2.05;;;;;;;9.06;59.88;100621.31;5144018;27;20040;-75
2022/02/24 09:44:32;;;;;;;3.80;2.08;;;;;;;9.15;61.99;100636.38;5141544;27;20027;-74
2022/02/24 09:46:58;;;;;;;4.07;1.88;;;;;;;9.11;61.03;100621.75;5139933;27;20081;-74
2022/02/24 09:49:28;;;;;;;3.10;1.67;;;;;;;9.12;60.07;100634.00;5140277;27;20031;-74
2022/02/24 09:51:54;;;;;;;4.35;1.85;;;;;;;8.94;60.46;100620.56;5142847;27;20034;-76
2022/02/24 09:54:19;;;;;;;4.07;2.28;;;;;;;8.83;61.96;100639.09;5140738;27;20023;-77
2022/02/24 09:56:45;;;;;;;4.07;1.95;;;;;;;8.86;62.63;100623.00;5137724;27;20321;-78
2022/02/24 09:59:13;;;;;;;5.07;2.42;;;;;;;8.95;61.80;100624.88;5138241;27;20094;-78
2022/02/24 10:01:40;;;;;;;3.65;1.98;;;;;;;8.91;58.42;100624.28;5139002;27;20038;-77
2022/02/24 10:04:06;;;;;;;4.13;2.00;;;;;;;9.04;60.46;100621.44;5137198;27;20103;-76
2022/02/24 10:06:38;;;;;;;5.10;2.35;;;;;;;9.20;60.20;100639.47;5139850;27;20051;-76
2022/02/24 10:09:05;;;;;;;4.13;2.25;;;;;;;9.03;60.72;100597.78;5137046;27;20035;-76
2022/02/24 10:11:34;;;;;;;2.90;1.90;;;;;;;9.17;60.61;100623.88;5137447;27;20031;-76
2022/02/24 10:14:06;;;;;;;5.72;2.25;;;;;;;8.99;61.03;100622.81;5137185;27;20019;-75
2022/02/24 10:16:52;;;;;;;5.85;2.05;;;;;;;8.92;61.75;100596.91;5136275;27;20042;-77
2022/02/24 10:19:25;;;;;;;6.13;2.63;;;;;;;9.17;60.30;100610.66;5137099;27;20031;-77
2022/02/24 10:22:13;;;;;;;4.15;2.20;;;;;;;9.25;61.54;100624.88;5137174;27;20106;-76
2022/02/24 10:24:42;;;;;;;5.55;2.40;;;;;;;9.03;60.40;100614.50;5135264;27;20326;-77
2022/02/24 10:27:29;;;;;;;3.60;1.98;;;;;;;9.07;59.74;100625.63;5138461;27;20465;-77
2022/02/24 10:30:14;;;;;;;6.68;2.20;;;;;;;8.90;59.90;100622.63;5137390;27;20023;-77
2022/02/24 10:32:40;;;;;;;5.13;1.95;;;;;;;8.89;59.57;100613.03;5136570;27;20030;-77
2022/02/24 10:35:27;;;;;;;2.97;1.75;;;;;;;8.91;59.16;100616.38;5138105;27;20042;-78
2022/02/24 10:37:58;;;;;;;4.70;2.10;;;;;;;8.94;59.00;100607.34;5136130;27;20035;-78
2022/02/24 10:40:26;;;;;;;7.65;2.10;;;;;;;9.02;57.24;100610.16;5138036;27;20030;-77
2022/02/24 10:42:52;;;;;;;5.60;2.72;;;;;;;9.15;60.92;100609.97;5137850;27;20039;-77
2022/02/24 10:45:18;;;;;;;5.63;2.35;;;;;;;9.08;58.46;100599.06;5135995;27;20024;-77
2022/02/24 10:48:02;;;;;;;4.40;2.25;;;;;;;9.10;58.67;100602.44;5138947;27;20046;-77
2022/02/24 10:50:58;;;;;;;7.40;2.30;;;;;;;9.31;58.82;100606.81;5139842;27;20107;-77
2022/02/24 10:53:35;;;;;;;4.93;2.60;;;;;;;9.37;58.23;100604.53;5130166;27;20038;-77
2022/02/24 10:56:06;;;;;;;6.13;2.38;;;;;;;9.50;58.22;100591.06;5137231;27;20031;-77
2022/02/24 10:58:35;;;;;;;3.50;1.83;;;;;;;9.59;56.60;100592.91;5138058;27;20054;-75
2022/02/24 11:01:17;;;;;;;6.07;2.17;;;;;;;9.76;54.16;100602.00;5138689;27;20042;-78
2022/02/24 11:03:45;;;;;;;6.88;2.45;;;;;;;9.33;56.84;100574.00;5138127;27;20031;-77
2022/02/24 11:06:12;;;;;;;5.00;2.25;;;;;;;9.03;57.58;100581.94;5136997;27;20092;-77
2022/02/24 11:08:38;;;;;;;4.75;2.25;;;;;;;9.00;57.80;100579.56;5137242;27;20214;-77
2022/02/24 11:11:05;;;;;;;4.97;2.33;;;;;;;8.96;57.38;100593.03;5137090;27;20050;-78
2022/02/24 11:13:31;;;;;;;5.50;1.83;;;;;;;8.87;59.16;100579.78;5137183;27;20027;-78
2022/02/24 11:15:58;;;;;;;5.65;2.47;;;;;;;9.01;61.49;100594.44;5136989;27;20081;-77
2022/02/24 11:18:25;;;;;;;3.38;2.13;;;;;;;8.96;56.86;100595.69;5136604;27;20076;-77
2022/02/24 11:20:52;;;;;;;3.90;1.88;;;;;;;9.01;59.06;100599.72;5136694;27;20019;-77
2022/02/24 11:23:17;;;;;;;6.00;2.00;;;;;;;8.98;61.54;100587.63;5137434;27;20282;-77
2022/02/24 11:25:54;;;;;;;4.80;2.00;;;;;;;8.93;59.27;100588.03;5135908;27;20035;-77
2022/02/24 11:28:21;;;;;;;3.05;2.13;;;;;;;8.90;59.45;100579.53;5137230;27;20041;-77